sensor_id;sensor_type;location;lat;lon;timestamp;P1;durP1;ratioP1;P2;durP2;ratioP2
48199;SDS011;33990;44.602;10.976;2023-01-31T00:01:41;13.63;;;9.40;;
48199;SDS011;33990;44.602;10.976;2023-01-31T00:04:09;9.95;;;8.35;;
48199;SDS011;33990;44.602;10.976;2023-01-31T00:06:39;12.30;;;9.75;;
48199;SDS011;33990;44.602;10.976;2023-01-31T00:09:09;10.73;;;8.82;;
48199;SDS011;33990;44.602;10.976;2023-01-31T00:11:37;12.50;;;9.65;;
48199;SDS011;33990;44.602;10.976;2023-01-31T00:14:05;10.93;;;9.13;;
48199;SDS011;33990;44.602;10.976;2023-01-31T00:16:33;11.15;;;8.60;;
48199;SDS011;33990;44.602;10.976;2023-01-31T00:19:01;11.73;;;9.05;;
48199;SDS011;33990;44.602;10.976;2023-01-31T00:21:29;12.20;;;9.25;;
48199;SDS011;33990;44.602;10.976;2023-01-31T00:23:57;10.52;;;8.73;;
48199;SDS011;33990;44.602;10.976;2023-01-31T00:26:27;12.57;;;8.70;;
48199;SDS011;33990;44.602;10.976;2023-01-31T00:28:57;10.68;;;8.18;;
48199;SDS011;33990;44.602;10.976;2023-01-31T00:31:26;10.55;;;8.65;;
48199;SDS011;33990;44.602;10.976;2023-01-31T00:33:55;12.65;;;9.38;;
48199;SDS011;33990;44.602;10.976;2023-01-31T00:36:24;12.23;;;8.82;;
48199;SDS011;33990;44.602;10.976;2023-01-31T00:38:54;10.95;;;8.50;;
48199;SDS011;33990;44.602;10.976;2023-01-31T00:41:24;11.05;;;8.85;;
48199;SDS011;33990;44.602;10.976;2023-01-31T00:43:52;11.05;;;8.52;;
48199;SDS011;33990;44.602;10.976;2023-01-31T00:46:19;10.27;;;8.63;;
48199;SDS011;33990;44.602;10.976;2023-01-31T00:48:48;10.60;;;8.80;;
48199;SDS011;33990;44.602;10.976;2023-01-31T00:51:16;11.82;;;8.82;;
48199;SDS011;33990;44.602;10.976;2023-01-31T00:53:44;10.85;;;8.70;;
48199;SDS011;33990;44.602;10.976;2023-01-31T00:56:13;11.60;;;8.95;;
48199;SDS011;33990;44.602;10.976;2023-01-31T00:58:42;9.18;;;7.57;;
48199;SDS011;33990;44.602;10.976;2023-01-31T01:03:38;10.40;;;7.88;;
48199;SDS011;33990;44.602;10.976;2023-01-31T01:06:06;9.88;;;7.82;;
48199;SDS011;33990;44.602;10.976;2023-01-31T01:08:36;10.65;;;8.43;;
48199;SDS011;33990;44.602;10.976;2023-01-31T01:13:33;10.38;;;8.52;;
48199;SDS011;33990;44.602;10.976;2023-01-31T01:16:04;9.98;;;7.93;;
48199;SDS011;33990;44.602;10.976;2023-01-31T01:18:34;11.18;;;8.07;;
48199;SDS011;33990;44.602;10.976;2023-01-31T01:21:11;11.32;;;8.38;;
48199;SDS011;33990;44.602;10.976;2023-01-31T01:23:41;11.35;;;8.10;;
48199;SDS011;33990;44.602;10.976;2023-01-31T01:26:13;10.48;;;8.20;;
48199;SDS011;33990;44.602;10.976;2023-01-31T01:28:52;9.95;;;8.57;;
48199;SDS011;33990;44.602;10.976;2023-01-31T01:31:21;11.13;;;8.27;;
48199;SDS011;33990;44.602;10.976;2023-01-31T01:33:49;11.27;;;8.57;;
48199;SDS011;33990;44.602;10.976;2023-01-31T01:36:17;10.93;;;7.88;;
48199;SDS011;33990;44.602;10.976;2023-01-31T01:38:48;9.98;;;7.55;;
48199;SDS011;33990;44.602;10.976;2023-01-31T01:41:15;9.93;;;8.27;;
48199;SDS011;33990;44.602;10.976;2023-01-31T01:43:47;9.93;;;8.60;;
48199;SDS011;33990;44.602;10.976;2023-01-31T01:46:19;9.27;;;7.97;;
48199;SDS011;33990;44.602;10.976;2023-01-31T01:49:35;11.00;;;8.55;;
48199;SDS011;33990;44.602;10.976;2023-01-31T01:51:52;11.57;;;7.57;;
48199;SDS011;33990;44.602;10.976;2023-01-31T01:54:26;10.23;;;7.85;;
48199;SDS011;33990;44.602;10.976;2023-01-31T01:57:02;8.07;;;7.15;;
48199;SDS011;33990;44.602;10.976;2023-01-31T01:59:39;11.10;;;7.90;;
48199;SDS011;33990;44.602;10.976;2023-01-31T02:02:13;9.00;;;8.00;;
48199;SDS011;33990;44.602;10.976;2023-01-31T02:04:41;10.40;;;7.60;;
48199;SDS011;33990;44.602;10.976;2023-01-31T02:07:12;9.25;;;7.72;;
48199;SDS011;33990;44.602;10.976;2023-01-31T02:09:56;10.70;;;7.53;;
48199;SDS011;33990;44.602;10.976;2023-01-31T02:12:29;9.27;;;7.55;;
48199;SDS011;33990;44.602;10.976;2023-01-31T02:14:58;9.30;;;7.68;;
48199;SDS011;33990;44.602;10.976;2023-01-31T02:17:26;8.88;;;7.18;;
48199;SDS011;33990;44.602;10.976;2023-01-31T02:25:47;9.27;;;7.63;;
48199;SDS011;33990;44.602;10.976;2023-01-31T02:31:54;8.98;;;7.85;;
48199;SDS011;33990;44.602;10.976;2023-01-31T02:43:05;8.50;;;6.95;;
48199;SDS011;33990;44.602;10.976;2023-01-31T02:50:57;10.75;;;7.25;;
48199;SDS011;33990;44.602;10.976;2023-01-31T02:53:43;9.50;;;7.38;;
48199;SDS011;33990;44.602;10.976;2023-01-31T02:56:18;9.48;;;7.35;;
48199;SDS011;33990;44.602;10.976;2023-01-31T02:59:06;9.68;;;7.05;;
48199;SDS011;33990;44.602;10.976;2023-01-31T03:01:39;9.02;;;7.93;;
48199;SDS011;33990;44.602;10.976;2023-01-31T03:04:11;9.70;;;7.45;;
48199;SDS011;33990;44.602;10.976;2023-01-31T03:06:43;8.93;;;7.28;;
48199;SDS011;33990;44.602;10.976;2023-01-31T03:09:26;8.38;;;7.50;;
48199;SDS011;33990;44.602;10.976;2023-01-31T03:20:47;11.25;;;7.97;;
48199;SDS011;33990;44.602;10.976;2023-01-31T03:23:24;8.32;;;7.15;;
48199;SDS011;33990;44.602;10.976;2023-01-31T03:25:57;9.30;;;7.07;;
48199;SDS011;33990;44.602;10.976;2023-01-31T03:28:27;11.38;;;7.95;;
48199;SDS011;33990;44.602;10.976;2023-01-31T03:31:02;10.63;;;7.47;;
48199;SDS011;33990;44.602;10.976;2023-01-31T03:39:43;8.57;;;6.93;;
48199;SDS011;33990;44.602;10.976;2023-01-31T03:42:20;8.52;;;6.88;;
48199;SDS011;33990;44.602;10.976;2023-01-31T03:44:57;8.43;;;7.10;;
48199;SDS011;33990;44.602;10.976;2023-01-31T03:47:29;8.85;;;7.05;;
48199;SDS011;33990;44.602;10.976;2023-01-31T03:50:00;10.15;;;7.45;;
48199;SDS011;33990;44.602;10.976;2023-01-31T03:52:32;9.70;;;7.20;;
48199;SDS011;33990;44.602;10.976;2023-01-31T03:55:09;8.43;;;7.47;;
48199;SDS011;33990;44.602;10.976;2023-01-31T03:57:43;9.95;;;7.65;;
48199;SDS011;33990;44.602;10.976;2023-01-31T04:00:14;9.60;;;7.22;;
48199;SDS011;33990;44.602;10.976;2023-01-31T04:02:53;11.20;;;7.45;;
48199;SDS011;33990;44.602;10.976;2023-01-31T04:05:31;8.25;;;7.20;;
48199;SDS011;33990;44.602;10.976;2023-01-31T04:08:02;9.10;;;7.60;;
48199;SDS011;33990;44.602;10.976;2023-01-31T04:10:32;9.75;;;7.32;;
48199;SDS011;33990;44.602;10.976;2023-01-31T04:12:59;9.45;;;8.45;;
48199;SDS011;33990;44.602;10.976;2023-01-31T04:15:27;8.85;;;7.50;;
48199;SDS011;33990;44.602;10.976;2023-01-31T04:17:55;8.93;;;7.38;;
48199;SDS011;33990;44.602;10.976;2023-01-31T04:20:22;8.68;;;7.70;;
48199;SDS011;33990;44.602;10.976;2023-01-31T04:22:49;8.63;;;6.95;;
48199;SDS011;33990;44.602;10.976;2023-01-31T04:25:16;8.55;;;7.57;;
48199;SDS011;33990;44.602;10.976;2023-01-31T04:27:44;10.02;;;6.88;;
48199;SDS011;33990;44.602;10.976;2023-01-31T04:30:12;9.63;;;7.40;;
48199;SDS011;33990;44.602;10.976;2023-01-31T04:32:39;9.35;;;7.15;;
48199;SDS011;33990;44.602;10.976;2023-01-31T04:35:07;8.00;;;6.82;;
48199;SDS011;33990;44.602;10.976;2023-01-31T04:37:34;9.68;;;7.32;;
48199;SDS011;33990;44.602;10.976;2023-01-31T04:40:02;9.20;;;7.38;;
48199;SDS011;33990;44.602;10.976;2023-01-31T04:42:30;9.35;;;7.07;;
48199;SDS011;33990;44.602;10.976;2023-01-31T04:44:57;8.25;;;6.85;;
48199;SDS011;33990;44.602;10.976;2023-01-31T04:47:25;9.13;;;7.28;;
48199;SDS011;33990;44.602;10.976;2023-01-31T04:49:52;9.63;;;7.22;;
48199;SDS011;33990;44.602;10.976;2023-01-31T04:52:20;7.90;;;7.00;;
48199;SDS011;33990;44.602;10.976;2023-01-31T04:54:47;8.30;;;7.47;;
48199;SDS011;33990;44.602;10.976;2023-01-31T04:57:14;8.88;;;7.63;;
48199;SDS011;33990;44.602;10.976;2023-01-31T04:59:42;8.65;;;6.90;;
48199;SDS011;33990;44.602;10.976;2023-01-31T05:02:09;10.07;;;7.45;;
48199;SDS011;33990;44.602;10.976;2023-01-31T05:04:36;10.32;;;7.28;;
48199;SDS011;33990;44.602;10.976;2023-01-31T05:07:04;9.38;;;7.13;;
48199;SDS011;33990;44.602;10.976;2023-01-31T05:09:31;8.68;;;6.93;;
48199;SDS011;33990;44.602;10.976;2023-01-31T05:11:58;8.95;;;6.97;;
48199;SDS011;33990;44.602;10.976;2023-01-31T05:14:25;7.80;;;6.78;;
48199;SDS011;33990;44.602;10.976;2023-01-31T05:16:53;9.05;;;7.00;;
48199;SDS011;33990;44.602;10.976;2023-01-31T05:19:21;8.73;;;7.13;;
48199;SDS011;33990;44.602;10.976;2023-01-31T05:21:48;10.07;;;7.22;;
48199;SDS011;33990;44.602;10.976;2023-01-31T05:24:25;10.90;;;7.82;;
48199;SDS011;33990;44.602;10.976;2023-01-31T05:26:55;10.57;;;8.00;;
48199;SDS011;33990;44.602;10.976;2023-01-31T05:29:25;8.15;;;6.82;;
48199;SDS011;33990;44.602;10.976;2023-01-31T05:31:53;9.57;;;7.43;;
48199;SDS011;33990;44.602;10.976;2023-01-31T05:34:23;9.52;;;7.57;;
48199;SDS011;33990;44.602;10.976;2023-01-31T05:36:52;9.35;;;6.95;;
48199;SDS011;33990;44.602;10.976;2023-01-31T05:39:19;8.40;;;6.97;;
48199;SDS011;33990;44.602;10.976;2023-01-31T05:41:47;8.85;;;7.13;;
48199;SDS011;33990;44.602;10.976;2023-01-31T05:44:15;7.80;;;7.00;;
48199;SDS011;33990;44.602;10.976;2023-01-31T05:46:42;7.50;;;6.38;;
48199;SDS011;33990;44.602;10.976;2023-01-31T05:49:09;9.20;;;7.20;;
48199;SDS011;33990;44.602;10.976;2023-01-31T05:51:37;9.55;;;7.18;;
48199;SDS011;33990;44.602;10.976;2023-01-31T05:54:05;9.20;;;7.53;;
48199;SDS011;33990;44.602;10.976;2023-01-31T05:56:33;9.50;;;6.78;;
48199;SDS011;33990;44.602;10.976;2023-01-31T05:59:01;9.68;;;6.80;;
48199;SDS011;33990;44.602;10.976;2023-01-31T06:01:29;9.35;;;7.60;;
48199;SDS011;33990;44.602;10.976;2023-01-31T06:03:56;7.95;;;6.70;;
48199;SDS011;33990;44.602;10.976;2023-01-31T06:06:24;9.30;;;6.90;;
48199;SDS011;33990;44.602;10.976;2023-01-31T06:08:51;9.48;;;6.57;;
48199;SDS011;33990;44.602;10.976;2023-01-31T06:11:18;7.85;;;7.05;;
48199;SDS011;33990;44.602;10.976;2023-01-31T06:13:46;7.82;;;7.03;;
48199;SDS011;33990;44.602;10.976;2023-01-31T06:16:15;8.15;;;6.47;;
48199;SDS011;33990;44.602;10.976;2023-01-31T06:18:42;8.75;;;7.00;;
48199;SDS011;33990;44.602;10.976;2023-01-31T06:21:10;9.00;;;7.43;;
48199;SDS011;33990;44.602;10.976;2023-01-31T06:23:38;8.77;;;7.22;;
48199;SDS011;33990;44.602;10.976;2023-01-31T06:26:06;8.25;;;7.32;;
48199;SDS011;33990;44.602;10.976;2023-01-31T06:28:33;9.25;;;7.47;;
48199;SDS011;33990;44.602;10.976;2023-01-31T06:31:06;8.65;;;6.95;;
48199;SDS011;33990;44.602;10.976;2023-01-31T06:33:37;8.70;;;7.07;;
48199;SDS011;33990;44.602;10.976;2023-01-31T06:36:14;9.27;;;6.70;;
48199;SDS011;33990;44.602;10.976;2023-01-31T06:38:51;7.32;;;6.18;;
48199;SDS011;33990;44.602;10.976;2023-01-31T06:41:19;9.25;;;6.97;;
48199;SDS011;33990;44.602;10.976;2023-01-31T06:43:47;7.85;;;6.57;;
48199;SDS011;33990;44.602;10.976;2023-01-31T06:46:14;8.15;;;6.68;;
48199;SDS011;33990;44.602;10.976;2023-01-31T06:48:42;8.25;;;6.80;;
48199;SDS011;33990;44.602;10.976;2023-01-31T06:51:10;9.00;;;6.35;;
48199;SDS011;33990;44.602;10.976;2023-01-31T06:53:37;7.88;;;6.80;;
48199;SDS011;33990;44.602;10.976;2023-01-31T06:56:04;8.80;;;6.70;;
48199;SDS011;33990;44.602;10.976;2023-01-31T06:58:32;7.85;;;6.25;;
48199;SDS011;33990;44.602;10.976;2023-01-31T07:01:03;8.13;;;7.03;;
48199;SDS011;33990;44.602;10.976;2023-01-31T07:03:32;8.07;;;6.20;;
48199;SDS011;33990;44.602;10.976;2023-01-31T07:05:59;7.97;;;5.97;;
48199;SDS011;33990;44.602;10.976;2023-01-31T07:08:27;8.38;;;6.30;;
48199;SDS011;33990;44.602;10.976;2023-01-31T07:10:54;7.65;;;5.95;;
48199;SDS011;33990;44.602;10.976;2023-01-31T07:13:21;8.88;;;6.90;;
48199;SDS011;33990;44.602;10.976;2023-01-31T07:15:49;6.68;;;5.68;;
48199;SDS011;33990;44.602;10.976;2023-01-31T07:18:17;8.13;;;6.32;;
48199;SDS011;33990;44.602;10.976;2023-01-31T07:20:44;7.70;;;6.50;;
48199;SDS011;33990;44.602;10.976;2023-01-31T07:23:12;8.15;;;6.47;;
48199;SDS011;33990;44.602;10.976;2023-01-31T07:25:39;9.57;;;6.70;;
48199;SDS011;33990;44.602;10.976;2023-01-31T07:28:06;9.23;;;6.50;;
48199;SDS011;33990;44.602;10.976;2023-01-31T07:30:34;8.80;;;6.45;;
48199;SDS011;33990;44.602;10.976;2023-01-31T07:33:01;6.88;;;5.95;;
48199;SDS011;33990;44.602;10.976;2023-01-31T07:35:29;7.03;;;5.40;;
48199;SDS011;33990;44.602;10.976;2023-01-31T07:37:56;6.93;;;6.03;;
48199;SDS011;33990;44.602;10.976;2023-01-31T07:40:24;7.07;;;5.68;;
48199;SDS011;33990;44.602;10.976;2023-01-31T07:42:54;9.95;;;6.47;;
48199;SDS011;33990;44.602;10.976;2023-01-31T07:45:24;8.52;;;6.07;;
48199;SDS011;33990;44.602;10.976;2023-01-31T07:47:51;7.13;;;6.32;;
48199;SDS011;33990;44.602;10.976;2023-01-31T07:50:18;7.63;;;6.20;;
48199;SDS011;33990;44.602;10.976;2023-01-31T07:52:46;7.22;;;6.13;;
48199;SDS011;33990;44.602;10.976;2023-01-31T07:55:15;7.75;;;5.70;;
48199;SDS011;33990;44.602;10.976;2023-01-31T07:57:42;8.68;;;6.80;;
48199;SDS011;33990;44.602;10.976;2023-01-31T08:00:09;7.60;;;6.07;;
48199;SDS011;33990;44.602;10.976;2023-01-31T08:02:56;7.95;;;6.55;;
48199;SDS011;33990;44.602;10.976;2023-01-31T08:05:44;8.68;;;6.82;;
48199;SDS011;33990;44.602;10.976;2023-01-31T08:08:12;10.18;;;6.40;;
48199;SDS011;33990;44.602;10.976;2023-01-31T08:10:40;11.25;;;6.80;;
48199;SDS011;33990;44.602;10.976;2023-01-31T08:13:07;9.90;;;6.65;;
48199;SDS011;33990;44.602;10.976;2023-01-31T08:15:37;9.90;;;6.68;;
48199;SDS011;33990;44.602;10.976;2023-01-31T08:18:04;8.02;;;6.03;;
48199;SDS011;33990;44.602;10.976;2023-01-31T08:20:32;8.65;;;6.68;;
48199;SDS011;33990;44.602;10.976;2023-01-31T08:23:00;8.75;;;6.25;;
48199;SDS011;33990;44.602;10.976;2023-01-31T08:25:27;9.80;;;6.57;;
48199;SDS011;33990;44.602;10.976;2023-01-31T08:27:56;8.13;;;6.28;;
48199;SDS011;33990;44.602;10.976;2023-01-31T08:30:24;7.07;;;5.78;;
48199;SDS011;33990;44.602;10.976;2023-01-31T08:32:52;12.43;;;6.65;;
48199;SDS011;33990;44.602;10.976;2023-01-31T08:35:19;9.77;;;8.27;;
48199;SDS011;33990;44.602;10.976;2023-01-31T08:37:47;9.43;;;6.90;;
48199;SDS011;33990;44.602;10.976;2023-01-31T08:40:14;14.68;;;6.55;;
48199;SDS011;33990;44.602;10.976;2023-01-31T08:42:41;10.45;;;6.30;;
48199;SDS011;33990;44.602;10.976;2023-01-31T08:45:09;9.05;;;6.53;;
48199;SDS011;33990;44.602;10.976;2023-01-31T08:47:36;9.02;;;6.72;;
48199;SDS011;33990;44.602;10.976;2023-01-31T08:50:04;14.10;;;6.30;;
48199;SDS011;33990;44.602;10.976;2023-01-31T08:55:22;10.05;;;6.78;;
48199;SDS011;33990;44.602;10.976;2023-01-31T08:57:50;7.20;;;6.18;;
48199;SDS011;33990;44.602;10.976;2023-01-31T09:00:26;13.43;;;7.15;;
48199;SDS011;33990;44.602;10.976;2023-01-31T09:02:55;9.98;;;6.85;;
48199;SDS011;33990;44.602;10.976;2023-01-31T09:05:25;10.93;;;6.72;;
48199;SDS011;33990;44.602;10.976;2023-01-31T09:07:53;8.23;;;5.80;;
48199;SDS011;33990;44.602;10.976;2023-01-31T09:10:21;9.82;;;6.35;;
48199;SDS011;33990;44.602;10.976;2023-01-31T09:12:50;12.70;;;6.53;;
48199;SDS011;33990;44.602;10.976;2023-01-31T09:15:17;8.93;;;5.90;;
48199;SDS011;33990;44.602;10.976;2023-01-31T09:17:45;11.02;;;6.20;;
48199;SDS011;33990;44.602;10.976;2023-01-31T09:20:12;9.75;;;6.05;;
48199;SDS011;33990;44.602;10.976;2023-01-31T09:22:40;8.07;;;6.38;;
48199;SDS011;33990;44.602;10.976;2023-01-31T09:25:07;13.50;;;7.53;;
48199;SDS011;33990;44.602;10.976;2023-01-31T09:27:35;10.05;;;6.78;;
48199;SDS011;33990;44.602;10.976;2023-01-31T09:30:05;11.25;;;7.65;;
48199;SDS011;33990;44.602;10.976;2023-01-31T09:32:34;17.60;;;9.77;;
48199;SDS011;33990;44.602;10.976;2023-01-31T09:35:03;13.27;;;7.75;;
48199;SDS011;33990;44.602;10.976;2023-01-31T09:37:30;13.23;;;7.85;;
48199;SDS011;33990;44.602;10.976;2023-01-31T09:39:58;11.68;;;6.78;;
48199;SDS011;33990;44.602;10.976;2023-01-31T09:42:26;12.25;;;8.00;;
48199;SDS011;33990;44.602;10.976;2023-01-31T09:47:42;10.95;;;6.22;;
48199;SDS011;33990;44.602;10.976;2023-01-31T09:55:16;12.02;;;6.80;;
48199;SDS011;33990;44.602;10.976;2023-01-31T10:00:39;9.40;;;5.85;;
48199;SDS011;33990;44.602;10.976;2023-01-31T10:06:03;8.73;;;5.65;;
48199;SDS011;33990;44.602;10.976;2023-01-31T10:08:39;9.48;;;5.72;;
48199;SDS011;33990;44.602;10.976;2023-01-31T10:11:15;7.80;;;6.07;;
48199;SDS011;33990;44.602;10.976;2023-01-31T10:13:55;11.60;;;5.75;;
48199;SDS011;33990;44.602;10.976;2023-01-31T10:19:28;8.23;;;5.80;;
48199;SDS011;33990;44.602;10.976;2023-01-31T10:22:06;9.27;;;5.93;;
48199;SDS011;33990;44.602;10.976;2023-01-31T10:24:44;9.20;;;6.20;;
48199;SDS011;33990;44.602;10.976;2023-01-31T10:27:16;9.77;;;5.85;;
48199;SDS011;33990;44.602;10.976;2023-01-31T10:29:53;7.13;;;5.57;;
48199;SDS011;33990;44.602;10.976;2023-01-31T10:32:27;8.32;;;6.32;;
48199;SDS011;33990;44.602;10.976;2023-01-31T10:35:02;10.10;;;7.05;;
48199;SDS011;33990;44.602;10.976;2023-01-31T10:37:38;9.68;;;5.70;;
48199;SDS011;33990;44.602;10.976;2023-01-31T10:40:57;9.00;;;6.25;;
48199;SDS011;33990;44.602;10.976;2023-01-31T10:43:10;7.63;;;5.68;;
48199;SDS011;33990;44.602;10.976;2023-01-31T10:45:40;9.52;;;5.90;;
48199;SDS011;33990;44.602;10.976;2023-01-31T10:48:20;8.38;;;6.20;;
48199;SDS011;33990;44.602;10.976;2023-01-31T10:50:57;7.85;;;6.15;;
48199;SDS011;33990;44.602;10.976;2023-01-31T10:56:30;9.48;;;6.20;;
48199;SDS011;33990;44.602;10.976;2023-01-31T10:59:02;7.72;;;6.05;;
48199;SDS011;33990;44.602;10.976;2023-01-31T11:01:36;8.00;;;6.60;;
48199;SDS011;33990;44.602;10.976;2023-01-31T11:04:14;8.15;;;5.63;;
48199;SDS011;33990;44.602;10.976;2023-01-31T11:06:51;8.13;;;6.22;;
48199;SDS011;33990;44.602;10.976;2023-01-31T11:09:20;9.63;;;6.25;;
48199;SDS011;33990;44.602;10.976;2023-01-31T11:11:56;7.60;;;6.30;;
48199;SDS011;33990;44.602;10.976;2023-01-31T11:14:26;7.43;;;5.80;;
48199;SDS011;33990;44.602;10.976;2023-01-31T11:16:56;8.30;;;5.50;;
48199;SDS011;33990;44.602;10.976;2023-01-31T11:19:30;8.15;;;5.72;;
48199;SDS011;33990;44.602;10.976;2023-01-31T11:21:59;7.25;;;5.10;;
48199;SDS011;33990;44.602;10.976;2023-01-31T11:24:28;7.90;;;6.10;;
48199;SDS011;33990;44.602;10.976;2023-01-31T11:27:03;8.75;;;5.25;;
48199;SDS011;33990;44.602;10.976;2023-01-31T11:29:35;8.38;;;5.63;;
48199;SDS011;33990;44.602;10.976;2023-01-31T11:32:11;8.13;;;5.43;;
48199;SDS011;33990;44.602;10.976;2023-01-31T11:40:43;7.13;;;4.97;;
48199;SDS011;33990;44.602;10.976;2023-01-31T11:45:44;7.38;;;5.22;;
48199;SDS011;33990;44.602;10.976;2023-01-31T11:48:23;6.90;;;5.05;;
48199;SDS011;33990;44.602;10.976;2023-01-31T11:50:59;7.22;;;5.43;;
48199;SDS011;33990;44.602;10.976;2023-01-31T11:56:15;8.02;;;5.40;;
48199;SDS011;33990;44.602;10.976;2023-01-31T11:58:47;6.90;;;5.15;;
48199;SDS011;33990;44.602;10.976;2023-01-31T12:01:19;6.27;;;4.60;;
48199;SDS011;33990;44.602;10.976;2023-01-31T12:03:50;8.95;;;6.00;;
48199;SDS011;33990;44.602;10.976;2023-01-31T12:06:34;6.43;;;5.10;;
48199;SDS011;33990;44.602;10.976;2023-01-31T12:09:04;7.65;;;5.47;;
48199;SDS011;33990;44.602;10.976;2023-01-31T12:11:49;7.20;;;5.40;;
48199;SDS011;33990;44.602;10.976;2023-01-31T12:14:21;5.78;;;4.68;;
48199;SDS011;33990;44.602;10.976;2023-01-31T12:16:52;5.60;;;4.55;;
48199;SDS011;33990;44.602;10.976;2023-01-31T12:19:32;6.20;;;5.20;;
48199;SDS011;33990;44.602;10.976;2023-01-31T12:22:22;6.82;;;5.35;;
48199;SDS011;33990;44.602;10.976;2023-01-31T12:39:24;6.93;;;5.63;;
48199;SDS011;33990;44.602;10.976;2023-01-31T12:41:52;5.95;;;4.53;;
48199;SDS011;33990;44.602;10.976;2023-01-31T12:44:42;6.47;;;5.30;;
48199;SDS011;33990;44.602;10.976;2023-01-31T13:08:04;6.80;;;4.82;;
48199;SDS011;33990;44.602;10.976;2023-01-31T13:10:44;6.40;;;5.03;;
48199;SDS011;33990;44.602;10.976;2023-01-31T13:13:23;5.80;;;4.53;;
48199;SDS011;33990;44.602;10.976;2023-01-31T13:16:16;5.13;;;4.50;;
48199;SDS011;33990;44.602;10.976;2023-01-31T13:18:51;6.57;;;4.13;;
48199;SDS011;33990;44.602;10.976;2023-01-31T13:21:22;6.18;;;4.97;;
48199;SDS011;33990;44.602;10.976;2023-01-31T13:23:54;8.82;;;4.88;;
48199;SDS011;33990;44.602;10.976;2023-01-31T13:26:39;6.47;;;4.75;;
48199;SDS011;33990;44.602;10.976;2023-01-31T13:32:01;6.28;;;5.03;;
48199;SDS011;33990;44.602;10.976;2023-01-31T13:37:42;5.95;;;4.72;;
48199;SDS011;33990;44.602;10.976;2023-01-31T13:42:39;6.72;;;4.22;;
48199;SDS011;33990;44.602;10.976;2023-01-31T13:45:07;6.63;;;5.00;;
48199;SDS011;33990;44.602;10.976;2023-01-31T13:47:43;7.00;;;4.68;;
48199;SDS011;33990;44.602;10.976;2023-01-31T13:50:26;6.13;;;4.32;;
48199;SDS011;33990;44.602;10.976;2023-01-31T13:52:57;6.22;;;4.50;;
48199;SDS011;33990;44.602;10.976;2023-01-31T13:55:47;7.15;;;4.40;;
48199;SDS011;33990;44.602;10.976;2023-01-31T13:58:23;5.68;;;4.47;;
48199;SDS011;33990;44.602;10.976;2023-01-31T14:01:00;5.88;;;4.50;;
48199;SDS011;33990;44.602;10.976;2023-01-31T14:09:36;6.82;;;4.28;;
48199;SDS011;33990;44.602;10.976;2023-01-31T14:14:49;6.40;;;4.38;;
48199;SDS011;33990;44.602;10.976;2023-01-31T14:22:34;4.80;;;3.72;;
48199;SDS011;33990;44.602;10.976;2023-01-31T14:28:17;5.60;;;4.20;;
48199;SDS011;33990;44.602;10.976;2023-01-31T14:41:17;5.53;;;4.45;;
48199;SDS011;33990;44.602;10.976;2023-01-31T14:58:23;6.75;;;4.30;;
48199;SDS011;33990;44.602;10.976;2023-01-31T15:00:56;4.97;;;4.10;;
48199;SDS011;33990;44.602;10.976;2023-01-31T15:03:27;7.22;;;4.20;;
48199;SDS011;33990;44.602;10.976;2023-01-31T15:06:05;6.47;;;3.95;;
48199;SDS011;33990;44.602;10.976;2023-01-31T15:08:37;4.85;;;3.83;;
48199;SDS011;33990;44.602;10.976;2023-01-31T15:11:11;6.28;;;4.55;;
48199;SDS011;33990;44.602;10.976;2023-01-31T15:14:23;5.53;;;3.92;;
48199;SDS011;33990;44.602;10.976;2023-01-31T15:17:09;6.75;;;4.18;;
48199;SDS011;33990;44.602;10.976;2023-01-31T15:22:44;6.50;;;4.13;;
48199;SDS011;33990;44.602;10.976;2023-01-31T15:28:14;6.60;;;3.55;;
48199;SDS011;33990;44.602;10.976;2023-01-31T15:30:44;5.72;;;3.90;;
48199;SDS011;33990;44.602;10.976;2023-01-31T15:33:20;5.32;;;4.38;;
48199;SDS011;33990;44.602;10.976;2023-01-31T15:36:04;6.53;;;3.70;;
48199;SDS011;33990;44.602;10.976;2023-01-31T15:38:37;5.28;;;3.97;;
48199;SDS011;33990;44.602;10.976;2023-01-31T15:43:43;6.70;;;4.25;;
48199;SDS011;33990;44.602;10.976;2023-01-31T15:46:21;6.28;;;3.70;;
48199;SDS011;33990;44.602;10.976;2023-01-31T15:48:57;5.72;;;4.10;;
48199;SDS011;33990;44.602;10.976;2023-01-31T15:51:26;6.13;;;4.20;;
48199;SDS011;33990;44.602;10.976;2023-01-31T15:54:00;5.70;;;4.20;;
48199;SDS011;33990;44.602;10.976;2023-01-31T15:56:33;7.10;;;4.25;;
48199;SDS011;33990;44.602;10.976;2023-01-31T15:59:05;6.63;;;4.25;;
48199;SDS011;33990;44.602;10.976;2023-01-31T16:01:38;7.38;;;4.30;;
48199;SDS011;33990;44.602;10.976;2023-01-31T16:04:06;5.38;;;3.90;;
48199;SDS011;33990;44.602;10.976;2023-01-31T16:06:34;6.47;;;4.53;;
48199;SDS011;33990;44.602;10.976;2023-01-31T16:09:04;6.22;;;4.47;;
48199;SDS011;33990;44.602;10.976;2023-01-31T16:11:33;5.75;;;3.88;;
48199;SDS011;33990;44.602;10.976;2023-01-31T16:14:02;5.78;;;4.60;;
48199;SDS011;33990;44.602;10.976;2023-01-31T16:16:33;8.85;;;4.72;;
48199;SDS011;33990;44.602;10.976;2023-01-31T16:19:02;10.45;;;4.90;;
48199;SDS011;33990;44.602;10.976;2023-01-31T16:24:08;8.98;;;4.90;;
48199;SDS011;33990;44.602;10.976;2023-01-31T16:26:39;9.82;;;4.55;;
48199;SDS011;33990;44.602;10.976;2023-01-31T16:29:20;11.43;;;4.55;;
48199;SDS011;33990;44.602;10.976;2023-01-31T16:31:51;7.25;;;4.40;;
48199;SDS011;33990;44.602;10.976;2023-01-31T16:34:27;6.53;;;4.80;;
48199;SDS011;33990;44.602;10.976;2023-01-31T16:37:02;6.68;;;4.35;;
48199;SDS011;33990;44.602;10.976;2023-01-31T16:39:47;4.50;;;3.65;;
48199;SDS011;33990;44.602;10.976;2023-01-31T16:44:44;7.50;;;4.72;;
48199;SDS011;33990;44.602;10.976;2023-01-31T16:52:46;8.20;;;4.88;;
48199;SDS011;33990;44.602;10.976;2023-01-31T16:55:16;8.07;;;4.95;;
48199;SDS011;33990;44.602;10.976;2023-01-31T16:57:46;8.15;;;4.80;;
48199;SDS011;33990;44.602;10.976;2023-01-31T17:02:51;8.15;;;5.05;;
48199;SDS011;33990;44.602;10.976;2023-01-31T17:07:55;6.90;;;4.82;;
48199;SDS011;33990;44.602;10.976;2023-01-31T17:10:28;6.78;;;4.05;;
48199;SDS011;33990;44.602;10.976;2023-01-31T17:15:29;7.40;;;4.60;;
48199;SDS011;33990;44.602;10.976;2023-01-31T17:17:56;8.10;;;4.65;;
48199;SDS011;33990;44.602;10.976;2023-01-31T17:20:24;6.88;;;4.70;;
48199;SDS011;33990;44.602;10.976;2023-01-31T17:22:51;8.10;;;4.60;;
48199;SDS011;33990;44.602;10.976;2023-01-31T17:25:32;6.20;;;4.72;;
48199;SDS011;33990;44.602;10.976;2023-01-31T17:28:02;9.70;;;5.15;;
48199;SDS011;33990;44.602;10.976;2023-01-31T17:30:31;8.75;;;4.57;;
48199;SDS011;33990;44.602;10.976;2023-01-31T17:33:00;6.03;;;5.13;;
48199;SDS011;33990;44.602;10.976;2023-01-31T17:38:04;7.05;;;4.45;;
48199;SDS011;33990;44.602;10.976;2023-01-31T17:40:32;7.30;;;4.88;;
48199;SDS011;33990;44.602;10.976;2023-01-31T17:43:01;5.45;;;4.70;;
48199;SDS011;33990;44.602;10.976;2023-01-31T17:45:30;6.57;;;5.03;;
48199;SDS011;33990;44.602;10.976;2023-01-31T17:47:58;7.30;;;4.60;;
48199;SDS011;33990;44.602;10.976;2023-01-31T17:50:26;6.30;;;4.80;;
48199;SDS011;33990;44.602;10.976;2023-01-31T17:52:55;7.88;;;5.15;;
48199;SDS011;33990;44.602;10.976;2023-01-31T17:55:22;8.43;;;5.28;;
48199;SDS011;33990;44.602;10.976;2023-01-31T17:57:51;7.32;;;5.20;;
48199;SDS011;33990;44.602;10.976;2023-01-31T18:00:18;7.18;;;5.28;;
48199;SDS011;33990;44.602;10.976;2023-01-31T18:02:47;6.50;;;5.40;;
48199;SDS011;33990;44.602;10.976;2023-01-31T18:05:15;7.93;;;5.30;;
48199;SDS011;33990;44.602;10.976;2023-01-31T18:07:50;7.13;;;5.15;;